Time;durP1;ratioP1;P1;durP2;ratioP2;P2;SDS_P1;SDS_P2;PMS_P1;PMS_P2;Temp;Humidity;BMP_temperature;BMP_pressure;BME280_temperature;BME280_humidity;BME280_pressure;Samples;Min_cycle;Max_cycle;Signal;HPM_P1;HPM_P2
2021/12/03 00:00:33;;;;;;;6.15;4.65;;;0.60;99.90;;;;;;5067752;28;20494;-44
2021/12/03 00:02:58;;;;;;;8.23;4.70;;;0.60;99.90;;;;;;5068170;28;20028;-43
2021/12/03 00:05:24;;;;;;;5.82;4.50;;;0.50;99.90;;;;;;5067126;28;20078;-42
2021/12/03 00:07:50;;;;;;;7.55;4.85;;;0.50;99.90;;;;;;5067564;28;20044;-43
2021/12/03 00:10:19;;;;;;;5.68;4.47;;;0.50;99.90;;;;;;5067711;28;20116;-44
2021/12/03 00:12:45;;;;;;;4.93;4.00;;;0.50;99.90;;;;;;5066704;28;20122;-42
2021/12/03 00:15:12;;;;;;;7.28;4.55;;;0.50;99.90;;;;;;5067995;28;20028;-43
2021/12/03 00:17:38;;;;;;;8.30;4.22;;;0.50;99.90;;;;;;5067199;28;20472;-43
2021/12/03 00:20:06;;;;;;;4.90;3.70;;;0.50;99.90;;;;;;5067192;28;20016;-42
2021/12/03 00:22:35;;;;;;;5.03;4.15;;;0.50;99.90;;;;;;5067316;28;20123;-43
2021/12/03 00:25:00;;;;;;;6.40;4.45;;;0.50;99.90;;;;;;5068307;28;20019;-43
2021/12/03 00:27:26;;;;;;;5.75;5.15;;;0.50;99.90;;;;;;5066488;28;20036;-43
2021/12/03 00:29:51;;;;;;;5.90;4.32;;;0.40;99.90;;;;;;5067324;28;20024;-44
2021/12/03 00:32:17;;;;;;;6.20;4.05;;;0.50;99.90;;;;;;5067656;28;20028;-43
2021/12/03 00:34:42;;;;;;;5.53;3.95;;;0.40;99.90;;;;;;5067146;28;20039;-43
2021/12/03 00:37:08;;;;;;;3.83;3.50;;;0.40;99.90;;;;;;5067683;28;20024;-43
2021/12/03 00:39:34;;;;;;;4.80;3.35;;;0.40;99.90;;;;;;5067395;28;20024;-42
2021/12/03 00:42:02;;;;;;;4.60;4.10;;;0.40;99.90;;;;;;5066453;28;20116;-42
2021/12/03 00:44:30;;;;;;;4.68;3.70;;;0.40;99.90;;;;;;5067331;28;20056;-43
2021/12/03 00:46:56;;;;;;;8.90;3.92;;;0.40;99.90;;;;;;5067160;28;20039;-42
2021/12/03 00:49:26;;;;;;;4.15;3.65;;;0.40;99.90;;;;;;5067083;28;20384;-43
2021/12/03 00:51:52;;;;;;;6.38;4.13;;;0.40;99.90;;;;;;5067187;28;20442;-42
2021/12/03 00:54:18;;;;;;;5.88;3.80;;;0.40;99.90;;;;;;5066746;28;20035;-43
2021/12/03 00:56:44;;;;;;;6.03;3.90;;;0.30;99.90;;;;;;5066503;28;20020;-43
2021/12/03 00:59:09;;;;;;;5.80;3.80;;;0.40;99.90;;;;;;5067515;28;20030;-43
2021/12/03 01:01:38;;;;;;;4.93;3.88;;;0.30;99.90;;;;;;5066413;28;20019;-42
2021/12/03 01:04:04;;;;;;;4.60;3.92;;;0.30;99.90;;;;;;5067212;28;20046;-42
2021/12/03 01:06:29;;;;;;;7.22;4.18;;;0.30;99.90;;;;;;5066906;28;20028;-43
2021/12/03 01:08:55;;;;;;;5.20;4.25;;;0.30;99.90;;;;;;5066033;28;20497;-44
2021/12/03 01:11:20;;;;;;;6.30;4.70;;;0.30;99.90;;;;;;5067722;28;20036;-43
2021/12/03 01:13:46;;;;;;;5.88;4.80;;;0.30;99.90;;;;;;5067030;28;20445;-43
2021/12/03 01:16:13;;;;;;;6.32;4.85;;;0.40;99.90;;;;;;5066775;28;20063;-42
2021/12/03 01:18:40;;;;;;;8.13;4.75;;;0.40;99.90;;;;;;5065998;28;20029;-42
2021/12/03 01:21:06;;;;;;;5.07;4.20;;;0.40;99.90;;;;;;5067221;28;20131;-42
2021/12/03 01:23:32;;;;;;;5.15;4.25;;;0.40;99.90;;;;;;5066108;28;20079;-42
2021/12/03 01:25:59;;;;;;;5.90;4.45;;;0.40;99.90;;;;;;5066762;28;20036;-43
2021/12/03 01:28:26;;;;;;;4.97;4.35;;;0.40;99.90;;;;;;5067235;28;20040;-42
2021/12/03 01:30:53;;;;;;;6.80;4.78;;;0.40;99.90;;;;;;5066280;28;20035;-42
2021/12/03 01:33:19;;;;;;;4.25;3.85;;;0.40;99.90;;;;;;5066971;28;20493;-43
2021/12/03 01:35:44;;;;;;;5.50;4.53;;;0.40;99.90;;;;;;5066504;28;20035;-43
2021/12/03 01:38:10;;;;;;;6.47;5.47;;;0.50;99.90;;;;;;5066596;28;20054;-43
2021/12/03 01:40:37;;;;;;;5.80;5.20;;;0.50;99.90;;;;;;5066554;28;20048;-43
2021/12/03 01:43:05;;;;;;;6.85;5.25;;;0.50;99.90;;;;;;5066495;28;20434;-44
2021/12/03 01:45:34;;;;;;;6.70;5.60;;;0.40;99.90;;;;;;5066048;28;20466;-43
2021/12/03 01:48:00;;;;;;;6.82;5.35;;;0.50;99.90;;;;;;5066277;28;20132;-43
2021/12/03 01:50:29;;;;;;;5.63;4.80;;;0.40;99.90;;;;;;5066605;28;20493;-43
2021/12/03 01:52:55;;;;;;;6.22;5.05;;;0.50;99.90;;;;;;5065632;28;20455;-42
2021/12/03 01:55:21;;;;;;;7.68;5.93;;;0.50;99.90;;;;;;5066329;28;20628;-42
2021/12/03 01:57:47;;;;;;;6.50;4.75;;;0.50;99.90;;;;;;5065424;28;20750;-43
2021/12/03 02:00:20;;;;;;;6.25;5.20;;;0.50;99.90;;;;;;5066720;28;20032;-44
2021/12/03 02:02:47;;;;;;;6.80;5.40;;;0.60;99.90;;;;;;5066400;28;20033;-43
2021/12/03 02:05:14;;;;;;;6.07;5.07;;;0.50;99.90;;;;;;5065935;28;20030;-44
2021/12/03 02:07:40;;;;;;;6.20;5.22;;;0.50;99.90;;;;;;5066019;28;20044;-44
2021/12/03 02:10:07;;;;;;;8.30;5.22;;;0.50;99.90;;;;;;5069762;28;20111;-44
2021/12/03 02:12:32;;;;;;;7.00;5.30;;;0.50;99.90;;;;;;5069287;28;20555;-44
2021/12/03 02:14:58;;;;;;;7.53;5.63;;;0.60;99.90;;;;;;5070233;28;20052;-42
2021/12/03 02:17:23;;;;;;;8.32;5.65;;;0.60;99.90;;;;;;5069817;28;20037;-44
2021/12/03 02:19:50;;;;;;;6.85;5.82;;;0.60;99.90;;;;;;5068636;28;20048;-44
2021/12/03 02:22:16;;;;;;;5.55;4.95;;;0.60;99.90;;;;;;5069985;28;20135;-44
2021/12/03 02:24:41;;;;;;;6.43;5.00;;;0.60;99.90;;;;;;5069778;28;20419;-43
2021/12/03 02:27:07;;;;;;;8.10;4.82;;;0.60;99.90;;;;;;5069455;28;20119;-42
2021/12/03 02:29:33;;;;;;;5.57;4.93;;;0.70;99.90;;;;;;5069777;28;20027;-42
2021/12/03 02:31:58;;;;;;;6.68;5.00;;;0.60;99.90;;;;;;5070003;28;20031;-43
2021/12/03 02:34:24;;;;;;;7.75;5.35;;;0.70;99.90;;;;;;5068721;28;20025;-43
2021/12/03 02:36:49;;;;;;;5.68;5.18;;;0.70;99.90;;;;;;5069791;28;20107;-45
2021/12/03 02:39:17;;;;;;;5.88;5.05;;;0.70;99.90;;;;;;5070398;28;20024;-43
2021/12/03 02:41:43;;;;;;;5.68;5.07;;;0.70;99.90;;;;;;5068257;28;20384;-44
2021/12/03 02:44:09;;;;;;;6.47;5.03;;;0.70;99.90;;;;;;5069495;28;20031;-47
2021/12/03 02:46:34;;;;;;;7.35;5.18;;;0.70;99.90;;;;;;5069456;28;20020;-46
2021/12/03 02:49:00;;;;;;;7.22;5.38;;;0.80;99.90;;;;;;5069125;28;20541;-42
2021/12/03 02:51:25;;;;;;;8.70;5.30;;;0.80;99.90;;;;;;5069319;28;20475;-43
2021/12/03 02:53:51;;;;;;;7.57;5.18;;;0.80;99.90;;;;;;5068921;28;20070;-43
2021/12/03 02:56:17;;;;;;;5.68;4.85;;;0.80;99.90;;;;;;5069450;28;20024;-43
2021/12/03 02:58:42;;;;;;;8.70;5.60;;;0.80;99.90;;;;;;5068776;28;20071;-44
2021/12/03 03:01:09;;;;;;;6.90;5.60;;;0.90;99.90;;;;;;5068837;28;20048;-43
2021/12/03 03:03:35;;;;;;;6.05;5.32;;;0.90;99.90;;;;;;5069030;28;20028;-43
2021/12/03 03:06:03;;;;;;;8.75;5.70;;;0.80;99.90;;;;;;5069449;28;20492;-43
2021/12/03 03:08:30;;;;;;;7.55;5.90;;;0.90;99.90;;;;;;5068078;28;20079;-44
2021/12/03 03:10:57;;;;;;;6.47;5.75;;;0.90;99.90;;;;;;5069005;28;20271;-44
2021/12/03 03:13:23;;;;;;;8.60;6.13;;;0.90;99.90;;;;;;5069143;28;20043;-43
2021/12/03 03:15:49;;;;;;;7.20;5.60;;;0.90;99.90;;;;;;5068432;28;20031;-42
2021/12/03 03:18:22;;;;;;;7.63;5.68;;;1.00;99.90;;;;;;5069170;28;20100;-43
2021/12/03 03:20:47;;;;;;;5.57;4.93;;;1.00;99.90;;;;;;5068196;28;20088;-44
2021/12/03 03:23:15;;;;;;;7.47;5.78;;;1.00;99.90;;;;;;5068716;28;20055;-44
2021/12/03 03:25:41;;;;;;;7.10;6.32;;;1.00;99.90;;;;;;5068973;28;20055;-42
2021/12/03 03:28:08;;;;;;;9.48;6.50;;;1.00;99.90;;;;;;5068951;28;20108;-43
2021/12/03 03:30:34;;;;;;;7.13;5.80;;;1.10;99.90;;;;;;5068581;28;20099;-44
2021/12/03 03:33:00;;;;;;;7.68;5.75;;;1.10;99.90;;;;;;5068233;28;20139;-44
2021/12/03 03:35:26;;;;;;;8.80;6.13;;;1.10;99.90;;;;;;5069178;28;20017;-44
2021/12/03 03:37:52;;;;;;;7.07;5.95;;;1.20;99.90;;;;;;5067827;28;20031;-43
2021/12/03 03:40:18;;;;;;;7.43;6.40;;;1.20;99.90;;;;;;5069303;28;20620;-43
2021/12/03 03:42:43;;;;;;;8.80;7.25;;;1.20;99.90;;;;;;5068345;28;20025;-42
2021/12/03 03:45:13;;;;;;;7.95;6.55;;;1.20;99.90;;;;;;5067849;28;20036;-43
2021/12/03 03:47:39;;;;;;;10.15;7.78;;;1.20;99.90;;;;;;5067914;28;20054;-44
2021/12/03 03:50:07;;;;;;;10.52;7.97;;;1.20;99.90;;;;;;5068967;28;20021;-44
2021/12/03 03:52:34;;;;;;;11.15;8.48;;;1.30;99.90;;;;;;5067842;28;20540;-44
2021/12/03 03:54:59;;;;;;;11.07;8.30;;;1.30;99.90;;;;;;5068074;28;20488;-44
2021/12/03 03:57:25;;;;;;;10.13;7.88;;;1.30;99.90;;;;;;5067407;28;20056;-43
2021/12/03 03:59:51;;;;;;;11.90;8.32;;;1.30;99.90;;;;;;5068436;28;20020;-43
2021/12/03 04:02:17;;;;;;;11.50;8.90;;;1.40;99.90;;;;;;5068152;28;20479;-42
2021/12/03 04:04:42;;;;;;;11.55;8.85;;;1.40;99.90;;;;;;5067305;28;20632;-43
2021/12/03 04:07:08;;;;;;;11.00;8.48;;;1.40;99.90;;;;;;5068197;28;20070;-42
2021/12/03 04:09:33;;;;;;;11.57;9.57;;;1.40;99.90;;;;;;5067932;28;20028;-42
2021/12/03 04:11:59;;;;;;;11.88;9.55;;;1.50;99.90;;;;;;5066914;28;20078;-44
2021/12/03 04:14:24;;;;;;;13.15;10.02;;;1.40;99.90;;;;;;5067873;28;20345;-41
2021/12/03 04:16:50;;;;;;;12.90;9.70;;;1.50;99.90;;;;;;5068234;28;20104;-43
2021/12/03 04:19:17;;;;;;;12.80;9.43;;;1.50;99.90;;;;;;5067534;28;20044;-42
2021/12/03 04:21:43;;;;;;;13.35;10.75;;;1.50;99.90;;;;;;5067200;28;20053;-43
2021/12/03 04:24:09;;;;;;;14.23;11.70;;;1.50;99.90;;;;;;5067851;28;20040;-42
2021/12/03 04:26:34;;;;;;;14.57;11.77;;;1.60;99.90;;;;;;5066744;28;20074;-43
2021/12/03 04:29:00;;;;;;;21.75;14.63;;;1.60;99.90;;;;;;5067870;28;20033;-44
2021/12/03 04:31:25;;;;;;;19.38;14.93;;;1.60;99.90;;;;;;5067368;28;20128;-43
2021/12/03 04:33:51;;;;;;;20.52;14.80;;;1.60;99.90;;;;;;5065784;28;20033;-44
2021/12/03 04:36:17;;;;;;;20.95;14.98;;;1.60;99.90;;;;;;5067776;28;20021;-43
2021/12/03 04:38:42;;;;;;;23.02;16.38;;;1.70;99.90;;;;;;5067412;28;20433;-43
2021/12/03 04:41:08;;;;;;;26.02;18.33;;;1.70;99.90;;;;;;5066731;28;20020;-44
2021/12/03 04:43:34;;;;;;;29.98;19.33;;;1.70;99.90;;;;;;5067444;28;20105;-43
2021/12/03 04:45:59;;;;;;;37.17;24.23;;;1.80;99.90;;;;;;5067496;28;20112;-44
2021/12/03 04:48:25;;;;;;;33.63;22.02;;;1.80;99.90;;;;;;5066513;28;20086;-43
2021/12/03 04:50:51;;;;;;;39.13;24.42;;;1.80;99.90;;;;;;5067433;28;20381;-43
2021/12/03 04:53:19;;;;;;;37.13;23.00;;;1.80;99.90;;;;;;5067660;28;20093;-44
2021/12/03 04:55:46;;;;;;;39.03;22.75;;;1.90;99.90;;;;;;5065963;28;20479;-44
2021/12/03 04:58:11;;;;;;;42.60;26.55;;;1.80;99.90;;;;;;5067370;28;20028;-43
2021/12/03 05:00:44;;;;;;;47.38;26.27;;;1.90;99.90;;;;;;5065862;28;20032;-44
2021/12/03 05:03:10;;;;;;;47.67;26.58;;;1.90;99.90;;;;;;5067560;28;20039;-43
2021/12/03 05:05:37;;;;;;;51.28;27.38;;;1.90;99.90;;;;;;5066818;28;20025;-42
2021/12/03 05:08:07;;;;;;;52.20;27.05;;;1.90;99.90;;;;;;5066711;28;20040;-42
2021/12/03 05:10:35;;;;;;;49.33;26.55;;;1.90;99.90;;;;;;5066527;28;20089;-44
2021/12/03 05:13:05;;;;;;;49.10;26.92;;;1.90;99.90;;;;;;5067752;28;20036;-42
2021/12/03 05:15:33;;;;;;;58.05;27.17;;;2.00;99.90;;;;;;5066466;28;20048;-43
2021/12/03 05:17:59;;;;;;;57.60;28.38;;;2.00;99.90;;;;;;5067035;28;20035;-43
2021/12/03 05:20:25;;;;;;;64.97;31.35;;;2.00;99.90;;;;;;5066551;28;20021;-44
2021/12/03 05:22:53;;;;;;;61.53;31.70;;;2.00;99.90;;;;;;5065697;28;20098;-42
2021/12/03 05:25:19;;;;;;;52.42;27.70;;;2.00;99.90;;;;;;5066909;28;20028;-42
2021/12/03 05:27:45;;;;;;;57.97;28.27;;;2.10;99.90;;;;;;5066494;28;20032;-43
2021/12/03 05:30:11;;;;;;;60.10;29.80;;;2.10;99.90;;;;;;5066309;28;20483;-43
2021/12/03 05:32:37;;;;;;;58.65;29.05;;;2.10;99.90;;;;;;5066070;28;20028;-43
2021/12/03 05:35:03;;;;;;;63.80;31.02;;;2.10;99.90;;;;;;5066743;28;20636;-43
2021/12/03 05:37:29;;;;;;;57.17;29.10;;;2.10;99.90;;;;;;5066073;28;20029;-42
2021/12/03 05:39:55;;;;;;;57.97;28.25;;;2.20;99.90;;;;;;5066821;28;20427;-43
2021/12/03 05:42:20;;;;;;;51.63;28.23;;;2.20;99.90;;;;;;5066821;28;20029;-43
2021/12/03 05:44:46;;;;;;;48.80;27.00;;;2.20;99.90;;;;;;5068497;28;20032;-43
2021/12/03 05:47:11;;;;;;;45.35;25.77;;;2.20;99.90;;;;;;5070189;28;20111;-43
2021/12/03 05:49:37;;;;;;;42.95;23.55;;;2.30;99.90;;;;;;5070224;28;20028;-43
2021/12/03 05:52:03;;;;;;;55.40;28.23;;;2.30;99.90;;;;;;5070374;28;20031;-43
2021/12/03 05:54:29;;;;;;;49.08;28.30;;;2.30;99.90;;;;;;5070236;28;20032;-43
2021/12/03 05:56:54;;;;;;;54.30;27.42;;;2.40;99.90;;;;;;5070053;28;20101;-43
2021/12/03 05:59:20;;;;;;;58.97;29.50;;;2.40;99.90;;;;;;5070459;28;20401;-43
2021/12/03 06:01:45;;;;;;;54.67;30.58;;;2.40;99.90;;;;;;5069871;28;20468;-43
2021/12/03 06:04:11;;;;;;;56.20;29.92;;;2.40;99.90;;;;;;5070288;28;20457;-43
2021/12/03 06:06:37;;;;;;;60.55;31.25;;;2.40;99.90;;;;;;5069945;28;20506;-43
2021/12/03 06:09:03;;;;;;;54.13;29.05;;;2.40;99.90;;;;;;5070276;28;20044;-43
2021/12/03 06:11:29;;;;;;;49.65;28.88;;;2.50;99.90;;;;;;5069216;28;20029;-43
2021/12/03 06:13:55;;;;;;;62.90;31.02;;;2.50;99.90;;;;;;5070605;28;20756;-42
2021/12/03 06:16:20;;;;;;;56.17;30.38;;;2.50;99.90;;;;;;5070411;28;20028;-44
2021/12/03 06:18:46;;;;;;;58.35;31.20;;;2.50;99.90;;;;;;5068580;28;20028;-43
2021/12/03 06:21:12;;;;;;;56.00;29.90;;;2.50;99.90;;;;;;5070224;28;20194;-44
2021/12/03 06:23:39;;;;;;;56.22;28.83;;;2.50;99.90;;;;;;5069238;28;20031;-43
2021/12/03 06:26:05;;;;;;;55.10;29.42;;;2.50;99.90;;;;;;5069494;28;20491;-43
2021/12/03 06:28:32;;;;;;;58.78;30.45;;;2.50;99.90;;;;;;5069791;28;20035;-42
2021/12/03 06:30:58;;;;;;;55.72;28.10;;;2.50;99.90;;;;;;5069641;28;20110;-44
2021/12/03 06:33:24;;;;;;;48.65;27.52;;;2.50;99.90;;;;;;5068818;28;20107;-42
2021/12/03 06:35:50;;;;;;;51.58;28.23;;;2.60;99.90;;;;;;5069786;28;20170;-43
2021/12/03 06:38:16;;;;;;;52.42;28.42;;;2.60;99.90;;;;;;5069498;28;20054;-43
2021/12/03 06:40:43;;;;;;;53.40;27.98;;;2.60;99.90;;;;;;5068700;28;20024;-43
2021/12/03 06:43:09;;;;;;;52.75;26.30;;;2.60;99.90;;;;;;5070005;28;20150;-43
2021/12/03 06:45:35;;;;;;;54.13;27.30;;;2.60;99.90;;;;;;5069225;28;20043;-43
2021/12/03 06:48:00;;;;;;;51.30;27.10;;;2.60;99.90;;;;;;5068913;28;20036;-43
2021/12/03 06:50:27;;;;;;;52.58;27.38;;;2.70;99.90;;;;;;5069576;28;20390;-43
2021/12/03 06:53:00;;;;;;;49.95;27.02;;;2.70;99.90;;;;;;5069132;28;20513;-43
2021/12/03 06:55:27;;;;;;;51.83;27.40;;;2.70;99.90;;;;;;5065223;28;20024;-43
2021/12/03 06:57:52;;;;;;;51.45;27.05;;;2.70;99.90;;;;;;5067615;28;20036;-43
2021/12/03 07:00:18;;;;;;;43.83;24.52;;;2.80;99.90;;;;;;5067927;28;20024;-43
2021/12/03 07:02:43;;;;;;;46.97;24.92;;;2.80;99.90;;;;;;5068976;28;20020;-43
2021/12/03 07:05:10;;;;;;;51.47;26.48;;;2.80;99.90;;;;;;5066534;28;20036;-42
2021/12/03 07:07:36;;;;;;;46.53;24.40;;;2.80;99.90;;;;;;5067010;28;20028;-43
2021/12/03 07:10:04;;;;;;;44.08;24.00;;;2.80;99.90;;;;;;5068525;28;20020;-43
2021/12/03 07:12:30;;;;;;;43.80;22.73;;;2.80;99.90;;;;;;5067677;28;20016;-42
2021/12/03 07:14:57;;;;;;;41.38;22.25;;;2.80;99.90;;;;;;5066990;28;20017;-43
2021/12/03 07:17:23;;;;;;;46.78;22.55;;;2.80;99.90;;;;;;5063731;28;20037;-43
2021/12/03 07:19:48;;;;;;;37.47;20.83;;;2.80;99.90;;;;;;5057306;28;20074;-43
2021/12/03 07:22:14;;;;;;;41.05;20.83;;;2.80;99.90;;;;;;5065016;28;20067;-43
2021/12/03 07:24:39;;;;;;;50.85;23.80;;;2.80;99.90;;;;;;5055272;28;20032;-43
2021/12/03 07:27:05;;;;;;;37.08;19.95;;;2.80;99.90;;;;;;5068665;28;20360;-43
2021/12/03 07:29:32;;;;;;;36.55;20.10;;;2.80;99.90;;;;;;5067693;28;20066;-42
2021/12/03 07:31:58;;;;;;;34.92;19.25;;;2.70;99.90;;;;;;5068857;28;20469;-43
2021/12/03 07:34:23;;;;;;;32.58;18.45;;;2.70;99.90;;;;;;5071382;28;20031;-43
2021/12/03 07:36:49;;;;;;;29.33;16.98;;;2.80;99.90;;;;;;5070863;28;20016;-44
2021/12/03 07:39:14;;;;;;;29.50;16.88;;;2.80;99.90;;;;;;5068699;28;20488;-44
2021/12/03 07:41:41;;;;;;;34.55;16.83;;;2.80;99.90;;;;;;5067534;28;20103;-44
2021/12/03 07:44:07;;;;;;;29.92;16.42;;;2.80;99.90;;;;;;5066549;28;20025;-43
2021/12/03 07:46:33;;;;;;;27.77;16.35;;;2.80;99.90;;;;;;5067449;28;20490;-42
2021/12/03 07:48:59;;;;;;;26.92;14.75;;;2.80;99.90;;;;;;5067638;28;20528;-43
2021/12/03 07:51:26;;;;;;;27.52;13.98;;;2.80;99.90;;;;;;5067002;28;20456;-43
2021/12/03 07:53:52;;;;;;;24.52;13.10;;;2.80;99.90;;;;;;5068195;28;20024;-43
2021/12/03 07:56:24;;;;;;;26.65;13.23;;;2.80;99.90;;;;;;5067160;28;20020;-43
2021/12/03 07:58:49;;;;;;;27.60;14.43;;;2.90;99.90;;;;;;5067998;28;20032;-43
2021/12/03 08:01:15;;;;;;;28.33;13.18;;;2.90;99.90;;;;;;5068333;28;20027;-43
2021/12/03 08:03:40;;;;;;;25.05;11.90;;;2.90;99.90;;;;;;5066907;28;20032;-43
2021/12/03 08:06:09;;;;;;;23.70;11.90;;;2.90;99.90;;;;;;5067605;28;20025;-44
2021/12/03 08:08:39;;;;;;;19.15;10.32;;;2.90;99.90;;;;;;5068048;28;20036;-43
2021/12/03 08:11:06;;;;;;;21.00;9.48;;;2.90;99.90;;;;;;5066975;28;20045;-43
2021/12/03 08:13:33;;;;;;;20.73;10.45;;;2.90;99.90;;;;;;5067455;28;20384;-44
2021/12/03 08:15:59;;;;;;;22.30;9.70;;;2.90;99.90;;;;;;5067481;28;20369;-43
2021/12/03 08:18:25;;;;;;;24.05;9.95;;;2.90;99.90;;;;;;5066829;28;20507;-43
2021/12/03 08:20:52;;;;;;;22.23;9.73;;;2.90;99.90;;;;;;5067504;28;20037;-43
2021/12/03 08:23:18;;;;;;;14.15;8.48;;;3.00;99.90;;;;;;5067058;28;20044;-43
2021/12/03 08:25:43;;;;;;;22.73;8.43;;;3.00;99.90;;;;;;5066485;28;20093;-45
2021/12/03 08:28:09;;;;;;;23.58;8.52;;;3.00;99.90;;;;;;5067455;28;20068;-44
2021/12/03 08:30:35;;;;;;;18.92;8.00;;;3.00;99.90;;;;;;5067903;28;20024;-44
2021/12/03 08:33:01;;;;;;;15.10;7.68;;;3.10;99.90;;;;;;5066654;28;20388;-44
2021/12/03 08:35:26;;;;;;;17.33;7.63;;;3.10;99.90;;;;;;5067279;28;20445;-43
2021/12/03 08:37:52;;;;;;;16.45;7.40;;;3.10;99.90;;;;;;5066548;28;20617;-41
2021/12/03 08:40:20;;;;;;;19.73;8.75;;;3.10;99.90;;;;;;5066742;28;20021;-44
2021/12/03 08:42:46;;;;;;;21.05;8.68;;;3.10;99.90;;;;;;5067219;28;20388;-44
2021/12/03 08:45:13;;;;;;;17.80;8.00;;;3.20;99.90;;;;;;5067107;28;20039;-43
2021/12/03 08:47:39;;;;;;;15.15;6.82;;;3.20;99.90;;;;;;5065870;28;20032;-43
2021/12/03 08:50:16;;;;;;;17.45;7.00;;;3.20;99.90;;;;;;5067135;28;20017;-43
2021/12/03 08:55:26;;;;;;;20.27;7.20;;;3.20;99.90;;;;;;5066669;28;20602;-44
2021/12/03 08:57:51;;;;;;;17.05;7.60;;;3.20;99.90;;;;;;5067195;28;20032;-44
2021/12/03 09:00:19;;;;;;;13.77;6.43;;;3.20;99.90;;;;;;5066264;28;20039;-43
2021/12/03 09:02:45;;;;;;;16.70;6.82;;;3.30;99.90;;;;;;5066348;28;20479;-44
2021/12/03 09:05:11;;;;;;;12.95;5.78;;;3.30;99.90;;;;;;5067286;28;20021;-43
2021/12/03 09:07:38;;;;;;;11.68;5.88;;;3.30;99.90;;;;;;5065426;28;20066;-43
2021/12/03 09:10:05;;;;;;;16.23;6.65;;;3.40;99.90;;;;;;5067298;28;20028;-43
2021/12/03 09:12:31;;;;;;;15.35;6.85;;;3.40;99.90;;;;;;5066893;28;20427;-44
2021/12/03 09:15:04;;;;;;;11.80;5.72;;;3.50;99.90;;;;;;5064615;28;20017;-45
2021/12/03 09:23:30;;;;;;;12.00;5.93;;;3.60;99.90;;;;;;5066759;28;20573;-42
2021/12/03 09:26:07;;;;;;;13.93;5.45;;;3.60;99.90;;;;;;5055710;28;20103;-43
2021/12/03 09:28:34;;;;;;;16.10;6.05;;;3.70;99.90;;;;;;5065665;28;20036;-44
2021/12/03 09:31:00;;;;;;;14.00;5.75;;;3.70;99.90;;;;;;5066874;28;20028;-43
2021/12/03 09:33:28;;;;;;;18.30;5.88;;;3.60;99.90;;;;;;5066434;28;20098;-43
2021/12/03 09:35:56;;;;;;;13.57;6.00;;;3.70;99.90;;;;;;5065792;28;20021;-43
2021/12/03 09:38:24;;;;;;;11.02;5.63;;;3.70;99.90;;;;;;5065797;28;20017;-43
2021/12/03 09:40:50;;;;;;;12.85;6.22;;;3.70;99.90;;;;;;5065785;28;20024;-44
2021/12/03 09:43:15;;;;;;;12.32;6.05;;;3.80;99.90;;;;;;5066115;28;20025;-42
2021/12/03 09:45:50;;;;;;;11.38;5.63;;;3.80;99.90;;;;;;5065976;28;20108;-44
2021/12/03 09:48:49;;;;;;;16.20;5.85;;;3.80;99.90;;;;;;5062880;28;20033;-43
2021/12/03 09:51:05;;;;;;;10.23;5.57;;;3.80;99.90;;;;;;5062418;28;20124;-43
2021/12/03 09:56:02;;;;;;;12.98;5.30;;;3.80;99.90;;;;;;5064465;28;20456;-43
2021/12/03 10:01:24;;;;;;;15.57;5.63;;;3.80;99.90;;;;;;5063088;28;20149;-44
2021/12/03 10:12:53;;;;;;;10.95;4.38;;;3.90;99.90;;;;;;5055718;28;20445;-44
2021/12/03 10:15:33;;;;;;;10.18;4.30;;;4.00;99.90;;;;;;5065979;28;20544;-43
2021/12/03 10:20:56;;;;;;;14.07;4.82;;;4.00;99.90;;;;;;5065659;28;20032;-43
2021/12/03 10:26:57;;;;;;;11.82;4.45;;;4.10;99.90;;;;;;5065224;28;20043;-43
2021/12/03 10:29:27;;;;;;;12.63;4.30;;;4.10;99.90;;;;;;5065850;28;20040;-44
2021/12/03 10:37:57;;;;;;;14.50;4.38;;;4.10;99.90;;;;;;5068952;28;20506;-43
2021/12/03 10:41:15;;;;;;;16.00;4.40;;;4.10;99.90;;;;;;5068640;28;20025;-44
2021/12/03 10:43:47;;;;;;;12.00;4.00;;;4.10;99.90;;;;;;5059541;28;20036;-44
2021/12/03 10:49:18;;;;;;;18.13;4.90;;;4.20;99.90;;;;;;5058524;28;20044;-42
2021/12/03 10:57:35;;;;;;;10.82;4.30;;;4.20;99.90;;;;;;5069677;28;20275;-43
2021/12/03 11:00:47;;;;;;;14.73;5.07;;;4.20;99.90;;;;;;5068688;28;20035;-43
2021/12/03 11:04:08;;;;;;;12.50;4.45;;;4.30;99.90;;;;;;5068617;28;20040;-43
2021/12/03 11:06:35;;;;;;;13.68;5.63;;;4.30;99.90;;;;;;5069120;28;20032;-43
2021/12/03 11:36:37;;;;;;;18.48;5.88;;;4.50;99.90;;;;;;5067709;28;20039;-42
2021/12/03 11:39:29;;;;;;;11.77;5.38;;;4.50;99.90;;;;;;5069836;28;20361;-44
2021/12/03 11:43:00;;;;;;;19.85;6.82;;;4.50;99.90;;;;;;5046736;28;20025;-44
2021/12/03 11:59:07;;;;;;;11.25;4.95;;;4.80;99.90;;;;;;5067739;28;20032;-43
2021/12/03 12:27:16;;;;;;;9.80;5.28;;;5.30;99.90;;;;;;5067275;28;20124;-43
2021/12/03 12:47:24;;;;;;;12.57;5.40;;;5.50;99.90;;;;;;5066047;28;20726;-44
2021/12/03 13:09:11;;;;;;;14.27;4.93;;;5.50;99.90;;;;;;5056206;28;20036;-42
2021/12/03 13:25:39;;;;;;;9.82;4.32;;;5.40;99.90;;;;;;5045193;28;20051;-44
2021/12/03 13:31:58;;;;;;;8.02;4.10;;;5.50;99.90;;;;;;5064947;28;20050;-42
2021/12/03 13:41:08;;;;;;;13.52;3.88;;;5.40;99.90;;;;;;5066879;28;20029;-43
2021/12/03 13:46:48;;;;;;;6.95;3.60;;;5.40;99.90;;;;;;5057227;28;20039;-43
2021/12/03 13:59:40;;;;;;;8.32;4.18;;;5.40;99.90;;;;;;5065836;28;20040;-44
2021/12/03 14:07:38;;;;;;;9.48;3.97;;;5.40;99.90;;;;;;5069054;28;20049;-44
2021/12/03 14:18:03;;;;;;;9.05;3.70;;;5.40;99.90;;;;;;5059972;28;20117;-44
2021/12/03 14:19:28;;;;;;;8.98;3.63;;;5.30;99.90;;;;;;5068967;28;20389;-43
2021/12/03 14:34:28;;;;;;;6.43;3.20;;;5.30;99.90;;;;;;5048795;28;20381;-43
2021/12/03 14:44:37;;;;;;;4.90;3.70;;;5.20;99.90;;;;;;5068652;28;20032;-43
2021/12/03 14:52:35;;;;;;;6.38;3.17;;;5.10;99.90;;;;;;5068683;28;20068;-43
2021/12/03 14:55:04;;;;;;;6.60;3.92;;;5.10;99.90;;;;;;5069060;28;20021;-44
2021/12/03 15:03:04;;;;;;;4.95;3.33;;;5.00;99.90;;;;;;5068571;28;20476;-44
2021/12/03 15:08:42;;;;;;;6.70;3.70;;;5.00;99.90;;;;;;5048385;28;20040;-44
2021/12/03 15:19:40;;;;;;;6.38;4.18;;;4.90;99.90;;;;;;5068738;28;20036;-44
2021/12/03 15:22:37;;;;;;;6.55;4.32;;;4.80;99.90;;;;;;5068262;28;20029;-44
2021/12/03 15:28:33;;;;;;;5.47;3.50;;;4.80;99.90;;;;;;5047132;28;20385;-44
2021/12/03 15:30:55;;;;;;;7.20;3.45;;;4.80;99.90;;;;;;5067274;28;20028;-42
2021/12/03 15:33:27;;;;;;;5.70;3.95;;;4.80;99.90;;;;;;5059219;28;20456;-44
2021/12/03 15:35:56;;;;;;;7.40;4.57;;;4.80;99.90;;;;;;5068603;28;20032;-43
2021/12/03 15:39:09;;;;;;;4.63;4.00;;;4.80;99.90;;;;;;5068318;28;20113;-43
2021/12/03 15:52:04;;;;;;;6.53;4.30;;;4.70;99.90;;;;;;5056598;28;20139;-43
2021/12/03 15:58:04;;;;;;;6.07;4.50;;;4.80;99.90;;;;;;5055819;28;20555;-44
2021/12/03 16:03:39;;;;;;;4.63;4.20;;;4.80;99.90;;;;;;5065559;28;20115;-43
2021/12/03 16:08:41;;;;;;;7.15;4.28;;;4.80;99.90;;;;;;5066535;28;20467;-43
2021/12/03 16:14:13;;;;;;;7.40;4.82;;;4.80;99.90;;;;;;5067855;28;20165;-43
2021/12/03 16:16:56;;;;;;;6.22;4.68;;;4.80;99.90;;;;;;5066697;28;20025;-43
2021/12/03 16:22:23;;;;;;;5.40;4.68;;;4.80;99.90;;;;;;5067433;28;20048;-44
2021/12/03 16:43:55;;;;;;;6.40;5.53;;;4.90;99.90;;;;;;5066398;28;20541;-44
2021/12/03 16:47:11;;;;;;;6.32;5.30;;;4.80;99.90;;;;;;5067314;28;20025;-43
2021/12/03 16:51:57;;;;;;;6.07;5.47;;;4.80;99.90;;;;;;5066771;28;20047;-43
2021/12/03 16:57:00;;;;;;;6.05;5.00;;;4.90;99.90;;;;;;5066844;28;20084;-44
2021/12/03 16:59:26;;;;;;;6.22;5.63;;;4.90;99.90;;;;;;5065936;28;20033;-43
2021/12/03 17:02:03;;;;;;;6.15;5.55;;;4.90;99.90;;;;;;5067118;28;20016;-42
2021/12/03 17:26:30;;;;;;;6.40;5.78;;;5.00;99.90;;;;;;5065542;28;20064;-44
2021/12/03 17:29:10;;;;;;;6.13;5.50;;;5.00;99.90;;;;;;5045872;28;20118;-43
2021/12/03 17:32:24;;;;;;;6.30;5.80;;;5.00;99.90;;;;;;5066435;28;20496;-43
2021/12/03 17:48:01;;;;;;;6.32;5.72;;;5.10;99.90;;;;;;5059562;28;20056;-44
2021/12/03 17:56:06;;;;;;;6.72;6.10;;;5.10;99.90;;;;;;5068754;28;20105;-43
2021/12/03 18:03:51;;;;;;;6.90;6.20;;;5.10;99.90;;;;;;5070110;28;20052;-43
2021/12/03 18:09:34;;;;;;;6.15;5.65;;;5.10;99.90;;;;;;5069361;28;20051;-44
2021/12/03 18:13:05;;;;;;;6.90;6.20;;;5.20;99.90;;;;;;5070119;28;20085;-44
2021/12/03 18:17:45;;;;;;;7.38;6.00;;;5.20;99.90;;;;;;5063627;28;20032;-43
2021/12/03 18:45:08;;;;;;;6.57;5.97;;;5.30;99.90;;;;;;5068065;28;20099;-43
2021/12/03 18:55:36;;;;;;;5.93;5.43;;;5.30;99.90;;;;;;5068509;28;20067;-44
2021/12/03 18:58:04;;;;;;;6.10;5.60;;;5.30;99.90;;;;;;5068331;28;20043;-44
2021/12/03 19:00:43;;;;;;;5.95;5.45;;;5.30;99.90;;;;;;5069395;28;20028;-43
2021/12/03 19:11:23;;;;;;;6.15;5.65;;;5.30;99.90;;;;;;5069013;28;20036;-43
2021/12/03 19:13:50;;;;;;;6.40;5.90;;;5.30;99.90;;;;;;5068011;28;20036;-44
2021/12/03 19:16:20;;;;;;;6.70;6.10;;;5.30;99.90;;;;;;5068877;28;20056;-44
2021/12/03 19:18:49;;;;;;;7.13;6.03;;;5.30;99.90;;;;;;5067944;28;20468;-43
2021/12/03 19:21:23;;;;;;;6.28;5.78;;;5.30;99.90;;;;;;5069006;28;20219;-43